createdAt,value
2023-07-10T00:01:54.339Z,98887.78
2023-07-10T00:04:22.100Z,98888.84
2023-07-10T00:06:49.528Z,98888.84
2023-07-10T00:09:17.167Z,98881.81
2023-07-10T00:11:45.780Z,98879.13
2023-07-10T00:14:21.867Z,98876.41
2023-07-10T00:16:51.057Z,98881.81
2023-07-10T00:19:22.487Z,98881.81
2023-07-10T00:21:52.497Z,98880.16
2023-07-10T00:24:20.080Z,98876.66
2023-07-10T00:26:47.355Z,98872.31
2023-07-10T00:29:28.214Z,98873.13
2023-07-10T00:31:55.568Z,98866.94
2023-07-10T00:34:26.447Z,98870.66
2023-07-10T00:36:54.317Z,98869.88
2023-07-10T00:39:21.865Z,98864.47
2023-07-10T00:42:05.303Z,98870.94
2023-07-10T00:44:52.977Z,98870.09
2023-07-10T00:47:35.242Z,98870.09
2023-07-10T00:50:22.672Z,98871.97
2023-07-10T00:52:51.121Z,98871.16
2023-07-10T00:55:28.139Z,98865.78
2023-07-10T00:58:13.370Z,98868.72
2023-07-10T01:01:11.206Z,98866.00
2023-07-10T01:03:40.379Z,98863.31
2023-07-10T01:06:10.149Z,98865.19
2023-07-10T01:08:40.717Z,98867.09
2023-07-10T01:11:08.428Z,98862.72
2023-07-10T01:13:39.226Z,98865.44
2023-07-10T01:16:07.438Z,98866.50
2023-07-10T01:18:36.859Z,98859.22
2023-07-10T01:21:10.699Z,98852.19
2023-07-10T01:23:38.358Z,98848.66
2023-07-10T01:26:06.963Z,98845.97
2023-07-10T01:28:35.094Z,98850.56
2023-07-10T01:31:09.581Z,98848.06
2023-07-10T01:33:41.525Z,98849.72
2023-07-10T01:36:11.912Z,98848.06
2023-07-10T01:38:55.000Z,98846.44
2023-07-10T01:41:33.157Z,98844.53
2023-07-10T01:44:00.554Z,98846.44
2023-07-10T01:46:28.983Z,98851.03
2023-07-10T01:49:00.256Z,98839.38
2023-07-10T01:51:27.980Z,98841.28
2023-07-10T01:54:01.868Z,98832.38
2023-07-10T01:56:30.177Z,98834.25
2023-07-10T01:58:57.360Z,98825.31
2023-07-10T02:01:24.930Z,98825.31
2023-07-10T02:03:52.441Z,98825.31
2023-07-10T02:06:20.273Z,98821.00
2023-07-10T02:08:47.597Z,98825.59
2023-07-10T02:11:15.746Z,98822.03
2023-07-10T02:13:43.212Z,98825.81
2023-07-10T02:16:12.532Z,98825.81
2023-07-10T02:18:40.502Z,98824.19
2023-07-10T02:21:09.318Z,98825.00
2023-07-10T02:23:39.196Z,98824.19
2023-07-10T02:26:08.066Z,98821.72
2023-07-10T02:28:35.396Z,98817.16
2023-07-10T02:31:07.102Z,98822.53
2023-07-10T02:33:35.383Z,98820.91
2023-07-10T02:36:04.270Z,98829.00
2023-07-10T02:38:31.931Z,98823.63
2023-07-10T02:41:00.614Z,98825.75
2023-07-10T02:43:27.957Z,98834.63
2023-07-10T02:45:55.579Z,98830.28
2023-07-10T02:48:23.282Z,98828.66
2023-07-10T02:50:50.947Z,98830.56
2023-07-10T02:53:18.567Z,98825.16
2023-07-10T02:55:46.727Z,98835.09
2023-07-10T02:58:14.018Z,98834.28
2023-07-10T03:00:41.606Z,98845.09
2023-07-10T03:03:09.160Z,98839.69
2023-07-10T03:05:36.811Z,98838.88
2023-07-10T03:08:04.283Z,98832.69
2023-07-10T03:10:31.879Z,98838.06
2023-07-10T03:12:59.233Z,98847.22
2023-07-10T03:15:26.800Z,98845.59
2023-07-10T03:17:54.097Z,98843.69
2023-07-10T03:20:21.681Z,98850.97
2023-07-10T03:22:50.525Z,98853.69
2023-07-10T03:25:18.179Z,98845.59
2023-07-10T03:27:49.720Z,98835.84
2023-07-10T03:30:18.284Z,98836.69
2023-07-10T03:32:45.905Z,98835.84
2023-07-10T03:35:13.669Z,98823.44
2023-07-10T03:37:40.938Z,98825.31
2023-07-10T03:40:09.076Z,98828.81
2023-07-10T03:42:36.429Z,98820.72
2023-07-10T03:45:04.287Z,98826.13
2023-07-10T03:47:31.622Z,98813.69
2023-07-10T03:49:59.202Z,98818.84
2023-07-10T03:52:26.507Z,98819.06
2023-07-10T03:54:54.086Z,98819.06
2023-07-10T03:57:21.375Z,98814.53
2023-07-10T03:59:48.996Z,98819.06
2023-07-10T04:02:16.610Z,98819.06
2023-07-10T04:04:44.132Z,98817.44
2023-07-10T04:07:11.491Z,98822.84
2023-07-10T04:09:39.045Z,98823.66
2023-07-10T04:12:06.826Z,98819.06
2023-07-10T04:14:37.629Z,98818.25
2023-07-10T04:17:05.394Z,98823.66
2023-07-10T04:19:33.144Z,98815.56
2023-07-10T04:22:00.486Z,98822.84
2023-07-10T04:24:28.039Z,98818.25
2023-07-10T04:26:55.304Z,98820.72
2023-07-10T04:29:22.841Z,98819.66
2023-07-10T04:31:50.144Z,98826.69
2023-07-10T04:34:17.811Z,98824.00
2023-07-10T04:36:45.112Z,98824.00
2023-07-10T04:39:12.673Z,98824.81
2023-07-10T04:41:40.144Z,98830.22
2023-07-10T04:44:07.834Z,98827.28
2023-07-10T04:46:35.552Z,98827.28
2023-07-10T04:49:03.226Z,98826.47
2023-07-10T04:51:30.765Z,98826.19
2023-07-10T04:53:58.309Z,98830.56
2023-07-10T04:56:25.600Z,98824.09
2023-07-10T04:58:58.451Z,98825.75
2023-07-10T05:01:29.696Z,98829.25
2023-07-10T05:03:57.954Z,98827.94
2023-07-10T05:06:25.430Z,98830.63
2023-07-10T05:08:54.928Z,98830.63
2023-07-10T05:11:27.554Z,98838.72
2023-07-10T05:13:55.445Z,98844.13
2023-07-10T05:16:23.346Z,98839.81
2023-07-10T05:18:51.040Z,98845.78
2023-07-10T05:21:18.795Z,98847.41
2023-07-10T05:23:46.404Z,98842.81
2023-07-10T05:26:16.726Z,98839.06
2023-07-10T05:28:44.367Z,98848.56
2023-07-10T05:31:12.649Z,98834.00
2023-07-10T05:33:41.135Z,98840.56
2023-07-10T05:36:15.041Z,98836.81
2023-07-10T05:38:43.109Z,98842.78
2023-07-10T05:41:10.467Z,98830.94
2023-07-10T05:43:39.588Z,98838.44
2023-07-10T05:46:07.603Z,98829.31
2023-07-10T05:48:35.459Z,98831.75
2023-07-10T05:51:02.837Z,98824.47
2023-07-10T05:53:30.746Z,98832.59
2023-07-10T05:55:59.052Z,98834.44
2023-07-10T05:58:28.934Z,98834.19
2023-07-10T06:00:59.650Z,98833.38
2023-07-10T06:03:31.850Z,98830.94
2023-07-10T06:06:02.361Z,98836.31
2023-07-10T06:08:31.524Z,98833.38
2023-07-10T06:10:59.168Z,98825.06
2023-07-10T06:13:27.235Z,98827.75
2023-07-10T06:15:57.257Z,98829.63
2023-07-10T06:18:26.228Z,98823.41
2023-07-10T06:20:55.642Z,98825.06
2023-07-10T06:23:24.632Z,98816.38
2023-07-10T06:25:52.591Z,98816.38
2023-07-10T06:28:21.889Z,98813.69
2023-07-10T06:31:02.561Z,98818.00
2023-07-10T06:33:31.514Z,98825.06
2023-07-10T06:35:59.806Z,98821.28
2023-07-10T06:38:28.337Z,98811.31
2023-07-10T06:40:56.382Z,98812.13
2023-07-10T06:43:24.573Z,98811.06
2023-07-10T06:45:52.198Z,98809.19
2023-07-10T06:48:19.887Z,98801.91
2023-07-10T06:50:51.511Z,98804.59
2023-07-10T06:53:26.571Z,98807.28
2023-07-10T06:56:01.532Z,98807.88
2023-07-10T06:58:30.679Z,98796.25
2023-07-10T07:00:58.052Z,98803.31
2023-07-10T07:03:26.005Z,98805.75
2023-07-10T07:05:54.068Z,98809.50
2023-07-10T07:08:22.866Z,98806.59
2023-07-10T07:10:51.957Z,98807.38
2023-07-10T07:13:22.326Z,98806.31
2023-07-10T07:15:57.089Z,98817.69
2023-07-10T07:18:28.840Z,98808.78
2023-07-10T07:20:57.268Z,98815.56
2023-07-10T07:23:25.518Z,98817.22
2023-07-10T07:25:55.025Z,98809.13
2023-07-10T07:28:22.739Z,98807.22
2023-07-10T07:30:50.132Z,98799.94
2023-07-10T07:33:19.692Z,98808.03
2023-07-10T07:35:48.602Z,98801.59
2023-07-10T07:38:17.152Z,98799.44
2023-07-10T07:40:44.818Z,98790.53
2023-07-10T07:43:12.451Z,98798.38
2023-07-10T07:45:40.074Z,98794.59
2023-07-10T07:48:07.779Z,98795.44
2023-07-10T07:50:35.253Z,98791.66
2023-07-10T07:53:02.449Z,98793.56
2023-07-10T07:55:31.392Z,98795.19
2023-07-10T07:57:58.791Z,98793.31
2023-07-10T08:00:28.519Z,98794.94
2023-07-10T08:02:56.231Z,98786.59
2023-07-10T08:05:36.110Z,98789.88
2023-07-10T08:08:08.922Z,98782.81
2023-07-10T08:10:38.540Z,98788.22
2023-07-10T08:13:06.383Z,98779.09
2023-07-10T08:15:34.119Z,98779.09
2023-07-10T08:18:01.741Z,98779.88
2023-07-10T08:20:29.803Z,98784.47
2023-07-10T08:22:57.260Z,98768.28
2023-07-10T08:25:24.803Z,98773.69
2023-07-10T08:27:52.134Z,98762.88
2023-07-10T08:30:19.795Z,98760.75
2023-07-10T08:32:47.256Z,98763.75
2023-07-10T08:35:15.428Z,98756.50
2023-07-10T08:37:42.924Z,98752.72
2023-07-10T08:40:31.841Z,98760.81
2023-07-10T08:43:02.851Z,98769.50
2023-07-10T08:45:39.324Z,98769.72
2023-07-10T08:48:24.278Z,98770.56
2023-07-10T08:50:52.151Z,98769.50
2023-07-10T08:53:25.814Z,98766.78
2023-07-10T08:56:11.468Z,98758.44
2023-07-10T08:58:39.555Z,98757.13
2023-07-10T09:01:21.841Z,98762.53
2023-07-10T09:03:52.342Z,98765.78
2023-07-10T09:06:35.711Z,98770.13
2023-07-10T09:09:23.436Z,98770.97
2023-07-10T09:11:52.692Z,98770.69
2023-07-10T09:14:40.656Z,98772.34
2023-07-10T09:17:16.274Z,98763.16
2023-07-10T09:19:48.306Z,98763.16
2023-07-10T09:22:15.887Z,98763.97
2023-07-10T09:24:43.304Z,98761.03
2023-07-10T09:27:14.569Z,98762.69
2023-07-10T09:29:44.677Z,98765.38
2023-07-10T09:32:14.179Z,98764.53
2023-07-10T09:34:51.430Z,98766.44
2023-07-10T09:37:21.502Z,98759.97
2023-07-10T09:39:49.568Z,98758.09
2023-07-10T09:42:22.243Z,98759.47
2023-07-10T09:44:54.223Z,98756.75
2023-07-10T09:47:23.236Z,98757.00
2023-07-10T09:49:57.645Z,98758.38
2023-07-10T09:52:31.657Z,98751.94
2023-07-10T09:55:15.133Z,98753.56
2023-07-10T09:57:59.131Z,98743.34
2023-07-10T10:00:28.191Z,98747.69
2023-07-10T10:03:15.035Z,98752.03
2023-07-10T10:05:42.673Z,98749.88
2023-07-10T10:08:22.245Z,98751.53
2023-07-10T10:11:07.360Z,98744.00
2023-07-10T10:13:59.524Z,98747.28
2023-07-10T10:16:49.999Z,98741.88
2023-07-10T10:19:23.647Z,98748.66
2023-07-10T10:21:51.364Z,98745.69
2023-07-10T10:24:19.201Z,98742.50
2023-07-10T10:26:47.760Z,98742.50
2023-07-10T10:29:34.086Z,98734.88
2023-07-10T10:32:01.350Z,98741.34
2023-07-10T10:35:08.055Z,98744.06
2023-07-10T10:37:54.517Z,98739.22
2023-07-10T10:40:27.746Z,98745.69
2023-07-10T10:43:30.500Z,98743.25
2023-07-10T10:46:21.521Z,98733.25
2023-07-10T10:49:08.890Z,98730.53
2023-07-10T10:52:05.854Z,98730.53
2023-07-10T10:54:41.381Z,98725.16
2023-07-10T10:57:11.899Z,98720.56
2023-07-10T11:00:00.913Z,98720.56
2023-07-10T11:02:43.801Z,98723.00
2023-07-10T11:05:33.109Z,98717.59
2023-07-10T11:08:05.478Z,98732.16
2023-07-10T11:10:37.854Z,98728.41
2023-07-10T11:13:09.424Z,98733.81
2023-07-10T11:15:37.619Z,98728.41
2023-07-10T11:18:05.841Z,98728.41
2023-07-10T11:20:33.380Z,98712.19
2023-07-10T11:23:03.484Z,98713.81
2023-07-10T11:25:39.579Z,98713.81
2023-07-10T11:28:28.067Z,98707.38
2023-07-10T11:31:31.724Z,98714.16
2023-07-10T11:34:08.424Z,98714.94
2023-07-10T11:36:38.994Z,98721.19
2023-07-10T11:39:06.549Z,98714.47
2023-07-10T11:41:37.018Z,98715.28
2023-07-10T11:44:32.498Z,98703.66
2023-07-10T11:47:03.160Z,98714.47
2023-07-10T11:49:36.804Z,98716.09
2023-07-10T11:52:19.601Z,98714.47
2023-07-10T11:54:49.913Z,98714.47
2023-07-10T11:57:23.723Z,98717.16
2023-07-10T11:59:54.470Z,98706.94
2023-07-10T12:02:31.180Z,98703.13
2023-07-10T12:05:00.456Z,98703.13
2023-07-10T12:07:28.570Z,98693.97
2023-07-10T12:10:00.340Z,98689.38
2023-07-10T12:12:33.306Z,98676.69
2023-07-10T12:15:03.251Z,98684.78
2023-07-10T12:20:04.973Z,98680.47
2023-07-10T12:22:38.903Z,98663.69
2023-07-10T12:25:13.233Z,98663.69
2023-07-10T12:30:24.278Z,98651.22
2023-07-10T12:32:54.905Z,98638.81
2023-07-10T12:35:39.132Z,98628.00
2023-07-10T12:38:09.357Z,98613.13
2023-07-10T12:40:39.831Z,98613.94
2023-07-10T12:43:36.427Z,98614.16
2023-07-10T12:46:15.121Z,98598.78
2023-07-10T12:48:42.769Z,98589.06
2023-07-10T12:51:18.439Z,98594.47
2023-07-10T12:53:46.283Z,98584.69
2023-07-10T12:56:14.069Z,98597.41
2023-07-10T12:58:41.566Z,98597.41
2023-07-10T13:01:24.055Z,98603.63
2023-07-10T13:04:06.677Z,98607.97
2023-07-10T13:06:35.313Z,98602.56
2023-07-10T13:09:06.329Z,98613.38
2023-07-10T13:14:14.803Z,98616.34
2023-07-10T13:16:45.758Z,98615.88
2023-07-10T13:19:13.738Z,98609.13
2023-07-10T13:21:41.718Z,98596.19
2023-07-10T13:24:09.139Z,98590.25
2023-07-10T13:26:36.752Z,98590.25
2023-07-10T13:29:04.085Z,98591.09
2023-07-10T13:31:33.551Z,98582.69
2023-07-10T13:34:01.019Z,98574.59
2023-07-10T13:36:28.713Z,98568.13
2023-07-10T13:38:56.401Z,98561.63
2023-07-10T13:41:26.093Z,98553.53
2023-07-10T13:43:54.189Z,98548.13
2023-07-10T13:46:30.226Z,98562.47
2023-07-10T13:49:00.006Z,98548.69
2023-07-10T13:51:30.309Z,98556.78
2023-07-10T13:53:58.452Z,98551.41
2023-07-10T13:56:30.899Z,98545.75
2023-07-10T13:58:58.651Z,98550.06
2023-07-10T14:01:26.787Z,98547.09
2023-07-10T14:03:54.627Z,98549.81
2023-07-10T14:06:24.830Z,98554.16
2023-07-10T14:08:54.023Z,98554.97
2023-07-10T14:11:22.168Z,98555.78
2023-07-10T14:13:49.696Z,98550.38
2023-07-10T14:16:21.145Z,98554.97
2023-07-10T14:18:48.534Z,98553.31
2023-07-10T14:21:16.557Z,98547.09
2023-07-10T14:23:43.828Z,98545.50
2023-07-10T14:26:20.491Z,98541.13
2023-07-10T14:28:48.416Z,98548.44
2023-07-10T14:31:16.399Z,98552.19
2023-07-10T14:33:43.832Z,98565.19
2023-07-10T14:36:14.847Z,98566.25
2023-07-10T14:38:43.028Z,98573.53
2023-07-10T14:41:13.962Z,98582.69
2023-07-10T14:43:42.900Z,98602.72
2023-07-10T14:46:18.247Z,98623.53
2023-07-10T14:48:45.766Z,98628.09
2023-07-10T14:51:13.513Z,98621.06
2023-07-10T14:53:41.044Z,98615.66
2023-07-10T14:56:17.518Z,98613.19
2023-07-10T14:58:45.043Z,98592.38
2023-07-10T15:01:17.770Z,98573.75
2023-07-10T15:03:47.263Z,98536.72
2023-07-10T15:06:28.464Z,98514.56
2023-07-10T15:08:56.073Z,98517.25
2023-07-10T15:11:25.206Z,98535.13
2023-07-10T15:13:52.641Z,98532.41
2023-07-10T15:16:23.532Z,98532.41
2023-07-10T15:18:53.062Z,98539.44
2023-07-10T15:21:25.782Z,98550.25
2023-07-10T15:23:53.215Z,98538.34
2023-07-10T15:26:21.185Z,98525.91
2023-07-10T15:28:48.632Z,98534.59
2023-07-10T15:31:17.670Z,98538.34
2023-07-10T15:33:45.184Z,98540.00
2023-07-10T15:36:19.064Z,98538.34
2023-07-10T15:38:47.362Z,98543.75
2023-07-10T15:41:23.391Z,98552.13
2023-07-10T15:43:51.724Z,98562.13
2023-07-10T15:46:19.391Z,98572.94
2023-07-10T15:48:46.934Z,98582.09
2023-07-10T15:51:32.730Z,98587.50
2023-07-10T15:54:00.047Z,98593.72
2023-07-10T15:56:27.785Z,98599.13
2023-07-10T15:58:55.109Z,98613.72
2023-07-10T16:01:24.294Z,98611.25
2023-07-10T16:03:52.024Z,98622.88
2023-07-10T16:06:19.731Z,98629.13
2023-07-10T16:08:46.993Z,98632.88
2023-07-10T16:11:23.327Z,98632.06
2023-07-10T16:13:54.004Z,98631.28
2023-07-10T16:16:21.814Z,98635.03
2023-07-10T16:18:49.330Z,98635.84
2023-07-10T16:21:24.842Z,98624.22
2023-07-10T16:23:53.602Z,98626.91
2023-07-10T16:26:23.004Z,98629.63
2023-07-10T16:28:50.829Z,98610.94
2023-07-10T16:31:25.083Z,98605.53
2023-07-10T16:33:52.876Z,98604.75
2023-07-10T16:36:20.480Z,98603.94
2023-07-10T16:38:48.316Z,98591.22
2023-07-10T16:41:21.261Z,98582.56
2023-07-10T16:43:50.144Z,98570.69
2023-07-10T16:46:18.545Z,98570.69
2023-07-10T16:48:51.247Z,98552.84
2023-07-10T16:51:25.642Z,98547.44
2023-07-10T16:53:55.365Z,98537.72
2023-07-10T16:56:25.425Z,98534.22
2023-07-10T16:58:53.383Z,98522.56
2023-07-10T17:01:26.704Z,98521.75
2023-07-10T17:03:56.105Z,98516.34
2023-07-10T17:06:26.668Z,98513.91
2023-07-10T17:08:54.434Z,98512.84
2023-07-10T17:11:30.585Z,98503.94
2023-07-10T17:13:59.066Z,98518.25
2023-07-10T17:16:27.030Z,98530.94
2023-07-10T17:18:54.380Z,98526.34
2023-07-10T17:21:22.695Z,98521.75
2023-07-10T17:23:49.993Z,98513.91
2023-07-10T17:26:19.877Z,98526.34
2023-07-10T17:28:48.076Z,98520.13
2023-07-10T17:31:27.475Z,98520.13
2023-07-10T17:34:00.524Z,98502.03
2023-07-10T17:36:30.354Z,98512.03
2023-07-10T17:39:09.076Z,98516.59
2023-07-10T17:41:44.840Z,98509.34
2023-07-10T17:44:28.838Z,98496.06
2023-07-10T17:46:56.746Z,98492.28
2023-07-10T17:49:24.068Z,98483.38
2023-07-10T17:51:51.927Z,98476.91
2023-07-10T17:54:22.470Z,98463.66
2023-07-10T17:56:50.116Z,98460.94
2023-07-10T17:59:17.942Z,98462.00
2023-07-10T18:01:47.374Z,98469.06
2023-07-10T18:04:19.682Z,98477.16
2023-07-10T18:06:47.045Z,98479.84
2023-07-10T18:09:23.841Z,98471.19
2023-07-10T18:11:51.879Z,98482.00
2023-07-10T18:14:20.128Z,98473.91
2023-07-10T18:16:47.604Z,98474.16
2023-07-10T18:19:17.996Z,98469.59
2023-07-10T18:21:48.842Z,98476.03
2023-07-10T18:24:24.875Z,98484.94
2023-07-10T18:26:52.675Z,98482.53
2023-07-10T18:29:21.079Z,98493.34
2023-07-10T18:31:48.692Z,98490.88
2023-07-10T18:34:19.450Z,98491.69
2023-07-10T18:36:47.623Z,98497.09
2023-07-10T18:39:16.458Z,98507.09
2023-07-10T18:41:44.630Z,98506.28
2023-07-10T18:44:18.106Z,98504.63
2023-07-10T18:46:46.405Z,98502.19
2023-07-10T18:49:17.354Z,98498.69
2023-07-10T18:51:45.038Z,98493.28
2023-07-10T18:54:16.131Z,98502.19
2023-07-10T18:56:43.612Z,98505.97
2023-07-10T18:59:24.848Z,98504.34
2023-07-10T19:01:55.127Z,98511.63
2023-07-10T19:04:27.865Z,98496.50
2023-07-10T19:06:56.172Z,98490.28
2023-07-10T19:09:27.861Z,98504.59
2023-07-10T19:11:56.001Z,98500.25
2023-07-10T19:14:26.287Z,98494.03
2023-07-10T19:16:58.121Z,98501.31
2023-07-10T19:19:31.102Z,98512.13
2023-07-10T19:21:58.714Z,98514.81
2023-07-10T19:24:28.186Z,98520.22
2023-07-10T19:26:56.100Z,98515.88
2023-07-10T19:29:23.855Z,98511.56
2023-07-10T19:32:05.576Z,98511.56
2023-07-10T19:34:33.931Z,98514.25
2023-07-10T19:37:01.279Z,98515.31
2023-07-10T19:39:30.735Z,98518.00
2023-07-10T19:41:58.165Z,98522.59
2023-07-10T19:44:43.474Z,98514.50
2023-07-10T19:47:13.763Z,98522.59
2023-07-10T19:49:41.464Z,98517.47
2023-07-10T19:52:16.368Z,98514.78
2023-07-10T19:54:44.797Z,98514.78
2023-07-10T19:57:27.262Z,98526.63
2023-07-10T19:59:54.935Z,98523.94
2023-07-10T20:02:22.955Z,98525.81
2023-07-10T20:04:50.697Z,98532.03
2023-07-10T20:07:19.048Z,98525.81
2023-07-10T20:09:46.823Z,98530.41
2023-07-10T20:12:19.517Z,98530.41
2023-07-10T20:14:48.063Z,98523.38
2023-07-10T20:17:30.178Z,98523.38
2023-07-10T20:19:59.181Z,98523.38
2023-07-10T20:22:32.863Z,98524.44
2023-07-10T20:25:02.368Z,98513.66
2023-07-10T20:27:29.765Z,98509.31
2023-07-10T20:29:57.281Z,98508.50
2023-07-10T20:32:24.588Z,98499.59
2023-07-10T20:34:52.173Z,98499.59
2023-07-10T20:37:21.797Z,98497.94
2023-07-10T20:39:49.869Z,98500.63
2023-07-10T20:42:17.338Z,98506.03
2023-07-10T20:44:47.526Z,98514.16
2023-07-10T20:47:17.194Z,98518.75
2023-07-10T20:49:46.390Z,98509.03
2023-07-10T20:52:19.126Z,98509.81
2023-07-10T20:54:48.261Z,98505.47
2023-07-10T20:57:16.071Z,98511.97
2023-07-10T20:59:43.528Z,98502.78
2023-07-10T21:02:20.489Z,98501.16
2023-07-10T21:04:48.049Z,98501.16
2023-07-10T21:07:20.973Z,98501.16
2023-07-10T21:09:53.274Z,98506.56
2023-07-10T21:12:21.958Z,98511.97
2023-07-10T21:14:49.696Z,98511.97
2023-07-10T21:17:22.227Z,98518.41
2023-07-10T21:19:49.865Z,98515.16
2023-07-10T21:22:19.618Z,98511.91
2023-07-10T21:24:49.012Z,98509.72
2023-07-10T21:27:25.911Z,98497.78
2023-07-10T21:29:54.942Z,98498.03
2023-07-10T21:32:27.275Z,98492.09
2023-07-10T21:34:55.119Z,98492.91
2023-07-10T21:37:22.765Z,98492.91
2023-07-10T21:39:50.391Z,98491.81
2023-07-10T21:42:21.056Z,98492.09
2023-07-10T21:44:48.538Z,98507.22
2023-07-10T21:47:16.131Z,98498.31
2023-07-10T21:49:43.474Z,98487.50
2023-07-10T21:52:11.123Z,98484.00
2023-07-10T21:54:38.498Z,98489.41
2023-07-10T21:57:06.316Z,98484.25
2023-07-10T21:59:37.180Z,98481.56
2023-07-10T22:02:05.455Z,98485.88
2023-07-10T22:04:32.814Z,98485.88
2023-07-10T22:07:00.318Z,98484.25
2023-07-10T22:09:27.576Z,98494.25
2023-07-10T22:11:55.225Z,98485.31
2023-07-10T22:14:23.020Z,98492.59
2023-07-10T22:16:59.102Z,98486.38
2023-07-10T22:19:37.561Z,98488.00
2023-07-10T22:22:05.466Z,98479.34
2023-07-10T22:24:33.087Z,98485.56
2023-07-10T22:27:00.596Z,98473.94
2023-07-10T22:29:27.873Z,98468.53
2023-07-10T22:31:55.500Z,98472.31
2023-07-10T22:34:23.091Z,98477.72
2023-07-10T22:36:50.841Z,98461.53
2023-07-10T22:39:18.191Z,98470.69
2023-07-10T22:41:45.749Z,98465.28
2023-07-10T22:44:16.048Z,98462.59
2023-07-10T22:46:45.700Z,98460.16
2023-07-10T22:49:14.611Z,98458.28
2023-07-10T22:51:42.765Z,98458.28
2023-07-10T22:54:11.274Z,98460.41
2023-07-10T22:56:42.876Z,98465.81
2023-07-10T22:59:16.787Z,98467.69
2023-07-10T23:01:44.834Z,98466.59
2023-07-10T23:04:12.895Z,98465.81
2023-07-10T23:06:40.774Z,98465.81
2023-07-10T23:09:11.075Z,98455.00
2023-07-10T23:11:38.665Z,98464.19
2023-07-10T23:14:06.343Z,98466.03
2023-07-10T23:16:34.006Z,98463.34
2023-07-10T23:19:01.353Z,98473.34
2023-07-10T23:21:29.948Z,98472.78
2023-07-10T23:23:58.657Z,98463.88
2023-07-10T23:26:27.260Z,98464.69
2023-07-10T23:28:54.827Z,98456.56
2023-07-10T23:31:27.852Z,98457.91
2023-07-10T23:33:55.846Z,98466.25
2023-07-10T23:36:26.048Z,98461.13
2023-07-10T23:38:54.610Z,98466.78
2023-07-10T23:41:22.502Z,98464.31
2023-07-10T23:43:51.673Z,98465.63
2023-07-10T23:46:19.209Z,98465.88
2023-07-10T23:48:46.556Z,98465.06
2023-07-10T23:51:15.180Z,98464.50
2023-07-10T23:53:42.620Z,98471.00
2023-07-10T23:56:10.310Z,98458.56
2023-07-10T23:58:38.619Z,98467.72
